createdAt,value
2023-07-17T00:00:42.505Z,99408.81
2023-07-17T00:03:15.648Z,99430.53
2023-07-17T00:05:46.809Z,99423.94
2023-07-17T00:08:16.308Z,99427.81
2023-07-17T00:10:47.583Z,99421.75
2023-07-17T00:13:24.963Z,99420.09
2023-07-17T00:15:58.012Z,99403.84
2023-07-17T00:18:31.785Z,99404.63
2023-07-17T00:21:02.897Z,99398.34
2023-07-17T00:23:33.910Z,99410.72
2023-07-17T00:26:03.066Z,99403.78
2023-07-17T00:28:38.137Z,99400.47
2023-07-17T00:31:19.063Z,99405.50
2023-07-17T00:33:49.892Z,99406.59
2023-07-17T00:36:31.950Z,99404.53
2023-07-17T00:39:05.223Z,99403.19
2023-07-17T00:41:37.427Z,99404.91
2023-07-17T00:44:10.421Z,99403.19
2023-07-17T00:46:45.101Z,99401.50
2023-07-17T00:49:21.402Z,99410.63
2023-07-17T00:51:49.822Z,99437.78
2023-07-17T00:54:22.829Z,99440.69
2023-07-17T00:56:53.328Z,99440.03
2023-07-17T00:59:26.629Z,99434.81
2023-07-17T01:01:57.127Z,99447.09
2023-07-17T01:04:27.651Z,99447.84
2023-07-17T01:07:07.053Z,99449.66
2023-07-17T01:09:37.743Z,99446.84
2023-07-17T01:12:16.220Z,99450.19
2023-07-17T01:15:01.806Z,99452.03
2023-07-17T01:17:34.603Z,99455.72
2023-07-17T01:20:06.945Z,99458.09
2023-07-17T01:22:41.872Z,99477.53
2023-07-17T01:25:15.243Z,99475.03
2023-07-17T01:27:44.541Z,99471.13
2023-07-17T01:30:14.314Z,99469.97
2023-07-17T01:32:43.698Z,99464.09
2023-07-17T01:35:22.928Z,99465.34
2023-07-17T01:37:54.613Z,99468.81
2023-07-17T01:40:32.803Z,99462.16
2023-07-17T01:43:09.805Z,99461.69
2023-07-17T01:45:41.568Z,99468.50
2023-07-17T01:48:10.956Z,99473.06
2023-07-17T01:50:42.325Z,99464.41
2023-07-17T01:53:14.592Z,99456.53
2023-07-17T01:55:47.708Z,99456.97
2023-07-17T01:58:21.784Z,99451.06
2023-07-17T02:00:55.519Z,99472.06
2023-07-17T02:03:25.454Z,99471.81
2023-07-17T02:05:53.686Z,99479.44
2023-07-17T02:08:23.602Z,99482.34
2023-07-17T02:11:07.868Z,99483.59
2023-07-17T02:13:41.362Z,99475.16
2023-07-17T02:16:13.394Z,99466.00
2023-07-17T02:18:50.924Z,99473.38
2023-07-17T02:21:32.040Z,99477.00
2023-07-17T02:24:03.539Z,99474.31
2023-07-17T02:26:37.022Z,99465.81
2023-07-17T02:29:10.147Z,99467.16
2023-07-17T02:31:41.360Z,99474.13
2023-07-17T02:34:19.702Z,99474.94
2023-07-17T02:36:50.879Z,99465.50
2023-07-17T02:39:22.460Z,99472.78
2023-07-17T02:41:54.370Z,99471.31
2023-07-17T02:44:25.903Z,99472.97
2023-07-17T02:47:01.090Z,99473.72
2023-07-17T02:49:31.811Z,99473.09
2023-07-17T02:52:01.404Z,99467.41
2023-07-17T02:54:31.104Z,99474.47
2023-07-17T02:57:02.117Z,99487.16
2023-07-17T02:59:32.341Z,99497.91
2023-07-17T03:02:00.771Z,99491.63
2023-07-17T03:04:30.347Z,99498.03
2023-07-17T03:07:00.259Z,99509.75
2023-07-17T03:09:31.445Z,99500.53
2023-07-17T03:12:06.053Z,99501.09
2023-07-17T03:14:45.210Z,99495.38
2023-07-17T03:17:15.188Z,99507.38
2023-07-17T03:19:52.641Z,99510.16
2023-07-17T03:22:28.615Z,99508.06
2023-07-17T03:25:05.750Z,99515.44
2023-07-17T03:27:43.003Z,99513.44
2023-07-17T03:30:14.361Z,99529.69
2023-07-17T03:32:43.761Z,99525.22
2023-07-17T03:35:12.858Z,99524.50
2023-07-17T03:37:41.875Z,99521.81
2023-07-17T03:40:16.116Z,99537.38
2023-07-17T03:42:51.230Z,99540.06
2023-07-17T03:45:23.299Z,99530.19
2023-07-17T03:47:52.582Z,99528.31
2023-07-17T03:50:24.892Z,99530.78
2023-07-17T03:53:04.434Z,99520.84
2023-07-17T03:55:38.542Z,99518.97
2023-07-17T03:58:17.272Z,99521.88
2023-07-17T04:00:49.024Z,99530.44
2023-07-17T04:03:22.231Z,99523.41
2023-07-17T04:05:52.832Z,99519.06
2023-07-17T04:08:23.695Z,99523.44
2023-07-17T04:10:55.288Z,99530.56
2023-07-17T04:13:31.225Z,99526.38
2023-07-17T04:16:09.743Z,99514.19
2023-07-17T04:18:39.648Z,99520.25
2023-07-17T04:21:09.893Z,99530.81
2023-07-17T04:23:47.236Z,99528.81
2023-07-17T04:26:22.236Z,99534.69
2023-07-17T04:28:55.198Z,99543.78
2023-07-17T04:31:29.162Z,99545.00
2023-07-17T04:34:00.700Z,99538.47
2023-07-17T04:36:29.131Z,99539.16
2023-07-17T04:38:58.947Z,99548.41
2023-07-17T04:41:35.361Z,99553.06
2023-07-17T04:44:21.425Z,99556.94
2023-07-17T04:46:53.241Z,99551.72
2023-07-17T04:49:23.550Z,99571.81
2023-07-17T04:51:54.587Z,99554.25
2023-07-17T04:54:24.683Z,99565.69
2023-07-17T04:57:01.421Z,99572.44
2023-07-17T04:59:48.857Z,99572.25
2023-07-17T05:02:21.589Z,99572.03
2023-07-17T05:04:51.232Z,99566.69
2023-07-17T05:07:22.850Z,99571.38
2023-07-17T05:09:54.371Z,99574.56
2023-07-17T05:12:25.213Z,99567.03
2023-07-17T05:15:00.827Z,99573.91
2023-07-17T05:17:35.957Z,99567.38
2023-07-17T05:20:11.399Z,99568.28
2023-07-17T05:22:44.035Z,99568.28
2023-07-17T05:25:15.591Z,99571.38
2023-07-17T05:27:48.721Z,99565.63
2023-07-17T05:30:34.512Z,99567.75
2023-07-17T05:33:08.386Z,99575.34
2023-07-17T05:35:39.044Z,99573.63
2023-07-17T05:38:19.284Z,99568.66
2023-07-17T05:40:52.569Z,99570.31
2023-07-17T05:43:23.849Z,99571.59
2023-07-17T05:46:06.736Z,99574.41
2023-07-17T05:48:38.709Z,99573.41
2023-07-17T05:51:10.313Z,99571.72
2023-07-17T05:53:39.205Z,99578.28
2023-07-17T05:56:18.410Z,99568.41
2023-07-17T05:58:50.372Z,99573.03
2023-07-17T06:01:25.300Z,99576.47
2023-07-17T06:04:02.762Z,99568.59
2023-07-17T06:06:34.250Z,99584.03
2023-07-17T06:09:06.160Z,99571.09
2023-07-17T06:11:34.998Z,99573.25
2023-07-17T06:14:07.379Z,99575.72
2023-07-17T06:16:40.597Z,99571.59
2023-07-17T06:19:13.039Z,99570.91
2023-07-17T06:21:42.733Z,99582.16
2023-07-17T06:24:17.702Z,99589.56
2023-07-17T06:26:46.017Z,99588.50
2023-07-17T06:29:17.353Z,99583.41
2023-07-17T06:31:50.055Z,99596.91
2023-07-17T06:34:23.414Z,99590.72
2023-07-17T06:36:53.159Z,99588.25
2023-07-17T06:39:31.141Z,99589.91
2023-07-17T06:41:59.186Z,99598.72
2023-07-17T06:44:28.630Z,99589.00
2023-07-17T06:47:01.288Z,99595.72
2023-07-17T06:49:29.410Z,99598.03
2023-07-17T06:52:05.890Z,99594.06
2023-07-17T06:54:51.945Z,99603.09
2023-07-17T06:57:24.396Z,99605.31
2023-07-17T07:00:01.378Z,99594.28
2023-07-17T07:02:39.624Z,99592.22
2023-07-17T07:05:24.777Z,99591.50
2023-07-17T07:07:54.292Z,99598.41
2023-07-17T07:10:23.986Z,99598.72
2023-07-17T07:12:57.714Z,99597.38
2023-07-17T07:15:27.240Z,99599.56
2023-07-17T07:18:01.588Z,99593.19
2023-07-17T07:20:31.051Z,99595.75
2023-07-17T07:23:04.077Z,99605.09
2023-07-17T07:25:42.741Z,99597.13
2023-07-17T07:28:13.419Z,99611.56
2023-07-17T07:30:43.619Z,99601.97
2023-07-17T07:33:21.056Z,99607.28
2023-07-17T07:35:58.447Z,99612.81
2023-07-17T07:38:27.126Z,99615.44
2023-07-17T07:40:59.377Z,99618.78
2023-07-17T07:43:30.127Z,99615.91
2023-07-17T07:46:02.262Z,99613.25
2023-07-17T07:48:35.244Z,99610.56
2023-07-17T07:51:09.380Z,99612.47
2023-07-17T07:53:56.113Z,99617.06
2023-07-17T07:56:25.784Z,99619.44
2023-07-17T07:58:55.503Z,99626.28
2023-07-17T08:01:32.132Z,99609.56
2023-07-17T08:04:15.701Z,99619.41
2023-07-17T08:06:57.571Z,99633.25
2023-07-17T08:09:34.350Z,99628.88
2023-07-17T08:12:11.948Z,99625.25
2023-07-17T08:14:46.298Z,99632.22
2023-07-17T08:17:17.440Z,99635.47
2023-07-17T08:19:52.730Z,99636.47
2023-07-17T08:22:24.507Z,99639.06
2023-07-17T08:24:56.088Z,99651.47
2023-07-17T08:27:30.571Z,99646.00
2023-07-17T08:30:07.632Z,99649.31
2023-07-17T08:32:42.173Z,99654.78
2023-07-17T08:35:26.496Z,99652.75
2023-07-17T08:37:55.215Z,99658.56
2023-07-17T08:40:36.209Z,99667.81
2023-07-17T08:43:07.933Z,99666.75
2023-07-17T08:45:45.780Z,99652.72
2023-07-17T08:48:14.924Z,99671.56
2023-07-17T08:50:50.218Z,99665.66
2023-07-17T08:53:27.705Z,99673.50
2023-07-17T08:55:58.739Z,99679.81
2023-07-17T08:58:32.218Z,99675.13
2023-07-17T09:01:05.498Z,99676.16
2023-07-17T09:03:37.780Z,99694.09
2023-07-17T09:06:16.262Z,99683.88
2023-07-17T09:08:52.584Z,99693.97
2023-07-17T09:11:22.303Z,99690.47
2023-07-17T09:13:52.332Z,99694.34
2023-07-17T09:16:31.380Z,99703.63
2023-07-17T09:19:02.369Z,99689.00
2023-07-17T09:21:42.027Z,99702.97
2023-07-17T09:24:12.224Z,99693.41
2023-07-17T09:26:45.063Z,99686.09
2023-07-17T09:29:19.389Z,99708.78
2023-07-17T09:31:54.332Z,99701.06
2023-07-17T09:34:25.131Z,99700.75
2023-07-17T09:37:12.005Z,99722.78
2023-07-17T09:39:49.310Z,99709.50
2023-07-17T09:42:37.775Z,99722.00
2023-07-17T09:45:19.422Z,99705.81
2023-07-17T09:47:50.967Z,99706.56
2023-07-17T09:50:33.324Z,99715.34
2023-07-17T09:53:05.772Z,99711.97
2023-07-17T09:55:39.253Z,99712.69
2023-07-17T09:58:13.749Z,99709.53
2023-07-17T10:00:42.207Z,99710.66
2023-07-17T10:03:14.600Z,99714.28
2023-07-17T10:05:46.643Z,99714.78
2023-07-17T10:08:23.079Z,99727.81
2023-07-17T10:10:54.807Z,99723.53
2023-07-17T10:13:25.976Z,99710.97
2023-07-17T10:15:54.575Z,99707.38
2023-07-17T10:18:25.362Z,99704.00
2023-07-17T10:20:55.914Z,99700.25
2023-07-17T10:23:33.132Z,99705.13
2023-07-17T10:26:21.036Z,99707.91
2023-07-17T10:28:51.764Z,99698.06
2023-07-17T10:31:29.774Z,99695.50
2023-07-17T10:34:08.010Z,99692.94
2023-07-17T10:36:43.886Z,99687.34
2023-07-17T10:39:20.912Z,99671.63
2023-07-17T10:41:56.856Z,99669.66
2023-07-17T10:44:25.530Z,99688.06
2023-07-17T10:47:02.097Z,99669.19
2023-07-17T10:49:32.409Z,99673.22
2023-07-17T10:52:01.365Z,99660.56
2023-07-17T10:54:33.618Z,99658.09
2023-07-17T10:57:05.153Z,99670.47
2023-07-17T10:59:34.460Z,99647.13
2023-07-17T11:02:05.296Z,99637.50
2023-07-17T11:04:35.436Z,99649.81
2023-07-17T11:07:11.253Z,99641.66
2023-07-17T11:09:45.427Z,99646.03
2023-07-17T11:12:20.434Z,99624.13
2023-07-17T11:14:54.146Z,99631.34
2023-07-17T11:17:23.693Z,99654.00
2023-07-17T11:20:06.935Z,99654.44
2023-07-17T11:22:38.075Z,99643.94
2023-07-17T11:25:12.146Z,99640.38
2023-07-17T11:27:42.702Z,99636.00
2023-07-17T11:30:21.806Z,99639.91
2023-07-17T11:33:15.231Z,99634.34
2023-07-17T11:35:47.952Z,99647.31
2023-07-17T11:38:27.685Z,99666.84
2023-07-17T11:40:59.344Z,99647.25
2023-07-17T11:43:37.812Z,99657.06
2023-07-17T11:46:20.088Z,99637.56
2023-07-17T11:48:50.986Z,99637.94
2023-07-17T11:51:28.838Z,99632.25
2023-07-17T11:53:58.716Z,99662.56
2023-07-17T11:56:39.667Z,99656.25
2023-07-17T11:59:18.656Z,99657.91
2023-07-17T12:01:47.809Z,99652.91
2023-07-17T12:04:33.626Z,99646.88
2023-07-17T12:07:08.357Z,99649.38
2023-07-17T12:09:45.249Z,99637.19
2023-07-17T12:12:26.224Z,99634.44
2023-07-17T12:14:55.686Z,99631.13
2023-07-17T12:17:26.426Z,99654.28
2023-07-17T12:20:02.837Z,99665.34
2023-07-17T12:22:32.305Z,99659.75
2023-07-17T12:25:04.228Z,99652.09
2023-07-17T12:27:44.847Z,99652.09
2023-07-17T12:30:21.999Z,99657.63
2023-07-17T12:32:50.801Z,99650.97
2023-07-17T12:35:22.668Z,99648.22
2023-07-17T12:38:00.016Z,99627.78
2023-07-17T12:40:33.634Z,99623.38
2023-07-17T12:43:19.159Z,99649.34
2023-07-17T12:45:47.621Z,99628.66
2023-07-17T12:48:24.233Z,99630.78
2023-07-17T12:50:57.413Z,99632.09
2023-07-17T12:53:30.778Z,99641.03
2023-07-17T12:56:14.685Z,99632.72
2023-07-17T12:59:01.475Z,99626.53
2023-07-17T13:01:33.483Z,99637.91
2023-07-17T13:04:06.158Z,99629.38
2023-07-17T13:06:38.977Z,99628.75
2023-07-17T13:09:18.042Z,99623.03
2023-07-17T13:11:46.571Z,99635.34
2023-07-17T13:14:18.797Z,99643.13
2023-07-17T13:16:48.994Z,99645.16
2023-07-17T13:19:31.017Z,99635.16
2023-07-17T13:22:06.987Z,99660.19
2023-07-17T13:24:37.124Z,99645.34
2023-07-17T13:27:19.174Z,99649.84
2023-07-17T13:30:04.711Z,99667.25
2023-07-17T13:32:40.957Z,99651.47
2023-07-17T13:35:18.290Z,99665.03
2023-07-17T13:37:46.901Z,99652.59
2023-07-17T13:40:16.623Z,99664.09
2023-07-17T13:42:49.025Z,99648.69
2023-07-17T13:45:24.759Z,99640.97
2023-07-17T13:48:01.067Z,99649.53
2023-07-17T13:50:35.698Z,99644.31
2023-07-17T13:53:08.344Z,99652.69
2023-07-17T13:55:42.398Z,99639.38
2023-07-17T13:58:20.564Z,99638.78
2023-07-17T14:00:59.539Z,99629.19
2023-07-17T14:03:28.335Z,99618.13
2023-07-17T14:06:05.187Z,99614.56
2023-07-17T14:08:34.950Z,99616.09
2023-07-17T14:11:12.487Z,99602.34
2023-07-17T14:13:43.126Z,99601.25
2023-07-17T14:16:14.077Z,99616.22
2023-07-17T14:18:45.350Z,99605.03
2023-07-17T14:21:23.363Z,99607.13
2023-07-17T14:23:52.500Z,99610.44
2023-07-17T14:26:37.490Z,99602.16
2023-07-17T14:29:08.354Z,99594.50
2023-07-17T14:31:42.892Z,99591.69
2023-07-17T14:34:12.924Z,99584.97
2023-07-17T14:36:41.344Z,99595.81
2023-07-17T14:39:12.208Z,99602.16
2023-07-17T14:41:46.196Z,99593.28
2023-07-17T14:44:26.510Z,99606.19
2023-07-17T14:47:00.601Z,99592.97
2023-07-17T14:49:28.734Z,99578.34
2023-07-17T14:52:00.077Z,99579.03
2023-07-17T14:54:36.627Z,99582.31
2023-07-17T14:57:08.751Z,99585.53
2023-07-17T14:59:37.306Z,99576.78
2023-07-17T15:02:21.288Z,99582.34
2023-07-17T15:04:51.573Z,99587.84
2023-07-17T15:07:22.129Z,99573.53
2023-07-17T15:09:51.616Z,99569.78
2023-07-17T15:12:23.918Z,99562.69
2023-07-17T15:14:55.096Z,99555.06
2023-07-17T15:17:32.380Z,99557.78
2023-07-17T15:20:04.488Z,99567.16
2023-07-17T15:22:32.781Z,99563.81
2023-07-17T15:25:04.472Z,99563.22
2023-07-17T15:27:32.922Z,99555.31
2023-07-17T15:30:02.077Z,99559.16
2023-07-17T15:32:39.446Z,99567.53
2023-07-17T15:35:08.433Z,99552.22
2023-07-17T15:37:37.895Z,99560.47
2023-07-17T15:40:09.212Z,99566.50
2023-07-17T15:42:41.126Z,99553.22
2023-07-17T15:45:23.845Z,99557.19
2023-07-17T15:47:58.019Z,99547.50
2023-07-17T15:50:26.197Z,99536.44
2023-07-17T15:52:58.597Z,99537.66
2023-07-17T15:55:29.243Z,99546.41
2023-07-17T15:58:00.863Z,99537.78
2023-07-17T16:00:37.575Z,99542.59
2023-07-17T16:03:25.563Z,99550.97
2023-07-17T16:05:56.584Z,99543.22
2023-07-17T16:08:27.877Z,99538.38
2023-07-17T16:10:57.437Z,99522.56
2023-07-17T16:13:28.273Z,99545.56
2023-07-17T16:16:02.776Z,99530.13
2023-07-17T16:18:34.885Z,99516.38
2023-07-17T16:21:07.412Z,99521.47
2023-07-17T16:23:38.935Z,99515.78
2023-07-17T16:26:09.393Z,99509.63
2023-07-17T16:28:37.941Z,99515.78
2023-07-17T16:31:07.576Z,99501.28
2023-07-17T16:33:42.875Z,99500.13
2023-07-17T16:36:11.835Z,99511.16
2023-07-17T16:38:43.810Z,99493.38
2023-07-17T16:41:17.971Z,99491.22
2023-07-17T16:44:00.076Z,99490.81
2023-07-17T16:46:32.305Z,99492.81
2023-07-17T16:49:13.505Z,99493.81
2023-07-17T16:51:46.027Z,99488.19
2023-07-17T16:54:26.126Z,99482.28
2023-07-17T16:57:02.228Z,99476.78
2023-07-17T16:59:38.557Z,99476.63
2023-07-17T17:02:12.984Z,99482.56
2023-07-17T17:05:00.044Z,99487.16
2023-07-17T17:07:50.451Z,99482.63
2023-07-17T17:10:23.400Z,99484.41
2023-07-17T17:13:07.114Z,99485.72
2023-07-17T17:15:51.366Z,99489.13
2023-07-17T17:18:23.747Z,99482.28
2023-07-17T17:21:16.615Z,99488.16
2023-07-17T17:23:59.328Z,99487.00
2023-07-17T17:26:39.819Z,99487.09
2023-07-17T17:29:23.512Z,99491.94
2023-07-17T17:32:07.348Z,99490.22
2023-07-17T17:34:41.255Z,99501.06
2023-07-17T17:37:30.478Z,99503.00
2023-07-17T17:40:08.332Z,99509.91
2023-07-17T17:42:54.910Z,99522.09
2023-07-17T17:45:37.092Z,99518.63
2023-07-17T17:48:13.472Z,99522.63
2023-07-17T17:50:54.399Z,99521.00
2023-07-17T17:53:41.856Z,99515.75
2023-07-17T17:56:20.932Z,99518.88
2023-07-17T17:59:00.058Z,99517.00
2023-07-17T18:01:36.314Z,99514.78
2023-07-17T18:04:18.453Z,99521.41
2023-07-17T18:06:59.569Z,99525.72
2023-07-17T18:09:38.505Z,99555.09
2023-07-17T18:12:26.638Z,99553.63
2023-07-17T18:15:04.841Z,99544.00
2023-07-17T18:17:39.694Z,99561.16
2023-07-17T18:20:24.410Z,99559.19
2023-07-17T18:23:09.715Z,99565.69
2023-07-17T18:25:45.093Z,99568.44
2023-07-17T18:28:24.798Z,99565.44
2023-07-17T18:30:56.279Z,99571.75
2023-07-17T18:33:33.291Z,99568.41
2023-07-17T18:36:10.681Z,99581.22
2023-07-17T18:39:03.074Z,99582.44
2023-07-17T18:41:39.141Z,99586.81
2023-07-17T18:44:19.289Z,99592.22
2023-07-17T18:46:57.374Z,99589.06
2023-07-17T18:49:31.416Z,99601.97
2023-07-17T18:52:04.956Z,99604.06
2023-07-17T18:54:39.034Z,99610.47
2023-07-17T18:57:13.026Z,99620.25
2023-07-17T18:59:49.132Z,99616.59
2023-07-17T19:02:24.990Z,99628.94
2023-07-17T19:05:02.162Z,99626.72
2023-07-17T19:07:35.565Z,99627.19
2023-07-17T19:10:06.469Z,99638.91
2023-07-17T19:12:40.119Z,99626.19
2023-07-17T19:15:17.107Z,99637.56
2023-07-17T19:18:02.216Z,99640.38
2023-07-17T19:20:41.791Z,99641.00
2023-07-17T19:23:24.330Z,99646.13
2023-07-17T19:26:08.531Z,99642.00
2023-07-17T19:28:56.068Z,99657.09
2023-07-17T19:31:39.434Z,99652.59
2023-07-17T19:34:15.361Z,99636.91
2023-07-17T19:36:52.100Z,99656.81
2023-07-17T19:39:26.465Z,99670.53
2023-07-17T19:42:04.293Z,99655.47
2023-07-17T19:45:01.018Z,99663.47
2023-07-17T19:47:59.338Z,99664.41
2023-07-17T19:50:49.481Z,99659.41
2023-07-17T19:53:26.293Z,99659.72
2023-07-17T19:56:06.486Z,99669.47
2023-07-17T19:58:49.152Z,99673.53
2023-07-17T20:01:35.126Z,99669.72
2023-07-17T20:04:15.744Z,99666.84
2023-07-17T20:06:55.153Z,99680.84
2023-07-17T20:09:38.063Z,99669.81
2023-07-17T20:12:24.035Z,99666.56
2023-07-17T20:14:59.706Z,99666.72
2023-07-17T20:17:44.657Z,99677.97
2023-07-17T20:20:23.877Z,99684.28
2023-07-17T20:22:59.300Z,99683.84
2023-07-17T20:25:31.747Z,99672.13
2023-07-17T20:28:06.164Z,99658.19
2023-07-17T20:30:45.310Z,99656.56
2023-07-17T20:33:34.890Z,99667.00
2023-07-17T20:36:22.438Z,99663.66
2023-07-17T20:39:10.846Z,99659.91
2023-07-17T20:41:59.503Z,99655.69
2023-07-17T20:44:42.368Z,99662.84
2023-07-17T20:47:25.191Z,99663.34
2023-07-17T20:50:18.030Z,99666.34
2023-07-17T20:53:00.821Z,99666.56
2023-07-17T20:55:41.250Z,99670.41
2023-07-17T20:58:21.705Z,99666.97
2023-07-17T21:01:03.127Z,99658.03
2023-07-17T21:03:35.214Z,99661.44
2023-07-17T21:06:09.530Z,99665.56
2023-07-17T21:08:40.693Z,99666.75
2023-07-17T21:11:12.135Z,99667.88
2023-07-17T21:13:43.995Z,99664.41
2023-07-17T21:16:12.995Z,99665.25
2023-07-17T21:18:44.762Z,99669.31
2023-07-17T21:21:27.105Z,99682.72
2023-07-17T21:23:56.819Z,99681.19
2023-07-17T21:26:25.531Z,99683.59
2023-07-17T21:29:09.358Z,99684.81
2023-07-17T21:31:40.530Z,99688.00
2023-07-17T21:34:17.605Z,99688.59
2023-07-17T21:36:51.414Z,99696.13
2023-07-17T21:39:21.750Z,99691.78
2023-07-17T21:41:55.305Z,99692.47
2023-07-17T21:44:29.432Z,99696.72
2023-07-17T21:47:06.019Z,99705.00
2023-07-17T21:49:47.681Z,99706.22
2023-07-17T21:52:28.895Z,99703.53
2023-07-17T21:55:03.219Z,99712.13
2023-07-17T21:57:33.623Z,99717.97
2023-07-17T22:00:05.046Z,99720.47
2023-07-17T22:02:59.233Z,99717.53
2023-07-17T22:05:41.318Z,99717.53
2023-07-17T22:08:17.059Z,99723.09
2023-07-17T22:10:51.565Z,99726.66
2023-07-17T22:13:32.750Z,99728.44
2023-07-17T22:16:04.326Z,99719.59
2023-07-17T22:18:39.397Z,99729.97
2023-07-17T22:21:09.763Z,99733.75
2023-07-17T22:23:44.973Z,99722.66
2023-07-17T22:26:15.363Z,99718.34
2023-07-17T22:28:46.301Z,99717.78
2023-07-17T22:31:23.453Z,99716.88
2023-07-17T22:33:53.845Z,99725.09
2023-07-17T22:36:24.567Z,99729.78
2023-07-17T22:38:57.179Z,99720.09
2023-07-17T22:41:35.525Z,99719.78
2023-07-17T22:44:11.727Z,99708.31
2023-07-17T22:46:41.881Z,99710.91
2023-07-17T22:49:12.558Z,99714.00
2023-07-17T22:51:41.985Z,99722.06
2023-07-17T22:54:14.336Z,99727.75
2023-07-17T22:56:45.222Z,99722.06
2023-07-17T22:59:16.626Z,99734.38
2023-07-17T23:01:50.843Z,99723.16
2023-07-17T23:04:24.362Z,99725.00
2023-07-17T23:06:58.972Z,99727.13
2023-07-17T23:09:33.373Z,99733.22
2023-07-17T23:12:04.972Z,99746.44
2023-07-17T23:14:37.880Z,99756.63
2023-07-17T23:17:08.104Z,99754.66
2023-07-17T23:19:46.026Z,99764.06
2023-07-17T23:22:25.040Z,99762.31
2023-07-17T23:24:57.072Z,99767.34
2023-07-17T23:27:27.882Z,99758.19
2023-07-17T23:30:06.746Z,99774.97
2023-07-17T23:32:36.292Z,99774.13
2023-07-17T23:35:16.716Z,99768.91
2023-07-17T23:37:46.140Z,99786.53
2023-07-17T23:40:23.266Z,99771.31
2023-07-17T23:42:57.632Z,99768.16
2023-07-17T23:45:35.370Z,99776.78
2023-07-17T23:48:05.758Z,99773.78
2023-07-17T23:50:42.597Z,99788.06
2023-07-17T23:53:23.232Z,99782.34
2023-07-17T23:56:03.678Z,99783.09
2023-07-17T23:58:35.205Z,99787.84
